Time;durP1;ratioP1;P1;durP2;ratioP2;P2;SDS_P1;SDS_P2;PMS_P1;PMS_P2;Temp;Humidity;BMP_temperature;BMP_pressure;BME280_temperature;BME280_humidity;BME280_pressure;Samples;Min_cycle;Max_cycle;Signal;HPM_P1;HPM_P2
2022/11/27 00:01:12;;;;;;;15.35;9.75;;;;;;;5.30;100.00;97598.34;5066378;28;19987;-44
2022/11/27 00:03:40;;;;;;;20.75;10.10;;;;;;;5.29;100.00;97595.78;5062178;28;20068;-45
2022/11/27 00:06:14;;;;;;;19.17;11.35;;;;;;;5.61;100.00;97599.22;5062155;28;20057;-47
2022/11/27 00:08:43;;;;;;;27.42;11.77;;;;;;;5.65;100.00;97595.53;5057882;28;20071;-44
2022/11/27 00:11:14;;;;;;;27.40;11.98;;;;;;;5.83;100.00;97594.50;5062315;28;21131;-43
2022/11/27 00:13:43;;;;;;;23.80;11.05;;;;;;;5.61;100.00;97604.47;5060045;28;20091;-43
2022/11/27 00:16:12;;;;;;;27.50;11.10;;;;;;;4.93;100.00;97612.56;5060518;28;20090;-43
2022/11/27 00:18:41;;;;;;;61.53;11.57;;;;;;;4.82;100.00;97612.25;5061494;28;20064;-42
2022/11/27 00:21:13;;;;;;;49.72;11.73;;;;;;;5.20;100.00;97613.69;5066651;28;20479;-46
2022/11/27 00:23:42;;;;;;;30.42;11.27;;;;;;;5.37;100.00;97604.91;5062095;28;20527;-42
2022/11/27 00:26:11;;;;;;;49.30;11.77;;;;;;;5.43;100.00;97608.94;5062801;28;20071;-44
2022/11/27 00:28:39;;;;;;;37.28;11.18;;;;;;;5.67;100.00;97604.13;5060421;28;20068;-45
2022/11/27 00:31:13;;;;;;;35.00;11.27;;;;;;;5.20;100.00;97605.00;5062982;28;20064;-43
2022/11/27 00:33:41;;;;;;;22.83;10.63;;;;;;;5.40;100.00;97601.28;5059307;28;20068;-42
2022/11/27 00:36:12;;;;;;;29.63;11.48;;;;;;;5.53;100.00;97594.44;5060412;28;20084;-45
2022/11/27 00:38:40;;;;;;;25.95;11.45;;;;;;;5.85;100.00;97591.78;5063467;28;20080;-49
2022/11/27 00:41:10;;;;;;;24.10;11.65;;;;;;;5.84;100.00;97590.09;5061975;28;20072;-45
2022/11/27 00:43:39;;;;;;;26.80;11.30;;;;;;;6.05;100.00;97588.03;5059035;28;20077;-43
2022/11/27 00:46:12;;;;;;;23.98;11.75;;;;;;;6.15;100.00;97578.72;5059888;28;20447;-41
2022/11/27 00:48:42;;;;;;;32.00;11.60;;;;;;;6.06;100.00;97571.44;5070039;28;20559;-42
2022/11/27 00:51:19;;;;;;;27.55;11.20;;;;;;;6.02;100.00;97567.28;5062830;28;20146;-41
2022/11/27 00:53:47;;;;;;;21.10;10.65;;;;;;;5.94;100.00;97563.31;5065988;28;20084;-42
2022/11/27 00:56:17;;;;;;;28.23;10.45;;;;;;;6.14;100.00;97566.56;5067620;28;20738;-41
2022/11/27 00:58:46;;;;;;;26.52;12.15;;;;;;;6.03;100.00;97566.38;5061992;28;20431;-41
2022/11/27 01:01:16;;;;;;;19.17;10.75;;;;;;;6.07;100.00;97567.88;5063643;28;20080;-43
2022/11/27 01:03:45;;;;;;;;;;;;;;;6.01;100.00;97568.22;5064207;28;20080;-43
2022/11/27 01:06:15;;;;;;;26.48;11.23;;;;;;;5.84;100.00;97558.69;5067337;28;20099;-41
2022/11/27 01:08:43;;;;;;;20.52;11.80;;;;;;;5.85;100.00;97552.50;5066025;28;20079;-42
2022/11/27 01:11:14;;;;;;;26.45;11.52;;;;;;;5.82;100.00;97550.09;5057015;28;20542;-44
2022/11/27 01:13:43;;;;;;;21.50;11.18;;;;;;;5.94;100.00;97552.84;5060387;28;20092;-44
2022/11/27 01:16:14;;;;;;;27.50;13.00;;;;;;;5.82;100.00;97555.31;5056924;28;20072;-43
2022/11/27 01:18:43;;;;;;;30.42;13.50;;;;;;;5.79;100.00;97552.88;5064702;28;20083;-46
2022/11/27 01:21:13;;;;;;;26.27;14.27;;;;;;;5.80;100.00;97552.78;5070076;28;20333;-46
2022/11/27 01:23:42;;;;;;;24.27;13.68;;;;;;;5.79;100.00;97545.88;5082346;28;20488;-43
2022/11/27 01:26:12;;;;;;;27.50;14.90;;;;;;;5.74;100.00;97547.88;5078594;28;20079;-43
2022/11/27 01:28:40;;;;;;;25.20;15.10;;;;;;;5.67;100.00;97542.16;5068325;28;20925;-44
2022/11/27 01:31:12;;;;;;;27.52;14.60;;;;;;;5.58;100.00;97537.47;5083693;28;20072;-44
2022/11/27 01:33:40;;;;;;;26.17;14.40;;;;;;;5.32;100.00;97538.09;5077625;28;20060;-42
2022/11/27 01:36:10;;;;;;;25.45;14.10;;;;;;;5.14;100.00;97530.34;5073238;28;20072;-45
2022/11/27 01:38:39;;;;;;;25.92;12.95;;;;;;;5.51;100.00;97530.06;5062638;28;20056;-42
2022/11/27 01:41:14;;;;;;;19.63;12.95;;;;;;;5.62;100.00;97536.38;5068118;28;20075;-43
2022/11/27 01:43:44;;;;;;;27.20;13.45;;;;;;;5.59;100.00;97533.91;5059378;28;20455;-42
2022/11/27 01:46:31;;;;;;;21.83;12.98;;;;;;;5.63;100.00;97542.44;5059356;28;20534;-45
2022/11/27 01:49:14;;;;;;;20.95;11.57;;;;;;;5.40;100.00;97544.59;5060789;28;20079;-44
2022/11/27 01:51:46;;;;;;;22.00;10.95;;;;;;;5.53;100.00;97538.66;5058851;28;20461;-43
2022/11/27 01:54:16;;;;;;;18.30;10.85;;;;;;;5.48;100.00;97545.00;5061530;28;20063;-45
2022/11/27 01:56:49;;;;;;;22.53;11.63;;;;;;;5.47;100.00;97537.22;5069360;28;20106;-41
2022/11/27 01:59:18;;;;;;;17.85;10.85;;;;;;;5.46;100.00;97539.00;5065132;28;20088;-40
2022/11/27 02:01:46;;;;;;;18.25;11.13;;;;;;;5.53;100.00;97536.88;5066097;28;20064;-43
2022/11/27 02:04:15;;;;;;;19.05;11.70;;;;;;;5.40;100.00;97541.97;5066876;28;20441;-44
2022/11/27 02:06:43;;;;;;;18.85;11.55;;;;;;;5.51;100.00;97533.53;5056476;28;20060;-45
2022/11/27 02:09:11;;;;;;;32.33;13.68;;;;;;;5.48;100.00;97529.28;5068262;28;20080;-43
2022/11/27 02:11:51;;;;;;;27.85;13.65;;;;;;;5.50;100.00;97523.13;5059433;28;20095;-43
2022/11/27 02:14:25;;;;;;;27.90;11.68;;;;;;;5.54;100.00;97527.25;5063601;28;20523;-45
2022/11/27 02:16:58;;;;;;;23.67;11.48;;;;;;;5.54;100.00;97514.16;5062756;28;20084;-46
2022/11/27 02:19:42;;;;;;;21.33;11.05;;;;;;;5.30;100.00;97522.50;5065879;28;20076;-43
2022/11/27 02:22:25;;;;;;;21.42;11.60;;;;;;;5.52;100.00;97516.03;5063924;28;20435;-45
2022/11/27 02:24:59;;;;;;;27.90;11.38;;;;;;;5.50;100.00;97510.03;5066697;28;20084;-45
2022/11/27 02:27:47;;;;;;;25.13;11.70;;;;;;;5.10;100.00;97507.91;5073979;28;20075;-41
2022/11/27 02:30:17;;;;;;;20.17;10.45;;;;;;;5.02;100.00;97501.41;5068498;28;20064;-45
2022/11/27 02:32:49;;;;;;;23.17;11.32;;;;;;;5.15;100.00;97503.25;5076790;28;20079;-42
2022/11/27 02:35:20;;;;;;;18.98;10.88;;;;;;;4.83;100.00;97505.03;5084454;28;20081;-45
2022/11/27 02:37:49;;;;;;;;;;;;;;;4.91;100.00;97496.75;5070514;28;20091;-46
2022/11/27 02:40:21;;;;;;;18.25;9.90;;;;;;;4.87;100.00;97500.47;5075063;28;20426;-44
2022/11/27 02:42:53;;;;;;;22.35;10.32;;;;;;;4.88;100.00;97492.53;5071508;28;20068;-44
2022/11/27 02:45:27;;;;;;;17.00;10.07;;;;;;;4.75;100.00;97495.00;5072115;28;20087;-44
2022/11/27 02:47:56;;;;;;;18.63;9.93;;;;;;;4.83;100.00;97483.28;5069818;28;20087;-41
2022/11/27 02:50:26;;;;;;;18.13;10.25;;;;;;;4.90;100.00;97468.97;5068433;28;20080;-46
2022/11/27 02:52:59;;;;;;;22.20;10.32;;;;;;;5.09;100.00;97463.53;5055976;28;20545;-42
2022/11/27 02:55:30;;;;;;;32.05;10.48;;;;;;;5.27;100.00;97459.06;5057410;28;20126;-43
2022/11/27 02:58:00;;;;;;;22.58;10.27;;;;;;;5.05;100.00;97457.63;5060357;28;20079;-43
2022/11/27 03:00:31;;;;;;;27.45;10.52;;;;;;;5.05;100.00;97443.72;5059854;28;20088;-43
2022/11/27 03:03:01;;;;;;;20.25;10.48;;;;;;;5.17;100.00;97446.50;5063050;28;20088;-40
2022/11/27 03:05:32;;;;;;;27.15;10.05;;;;;;;5.09;100.00;97451.31;5059394;28;20088;-46
2022/11/27 03:08:04;;;;;;;21.58;9.80;;;;;;;5.21;100.00;97444.56;5064015;28;20531;-44
2022/11/27 03:10:36;;;;;;;17.13;10.13;;;;;;;5.20;100.00;97443.72;5057292;28;20084;-43
2022/11/27 03:13:04;;;;;;;23.58;10.82;;;;;;;5.26;100.00;97439.88;5063705;28;20041;-43
2022/11/27 03:15:39;;;;;;;18.02;10.60;;;;;;;5.31;100.00;97443.09;5063621;28;20087;-44
2022/11/27 03:18:12;;;;;;;16.02;9.80;;;;;;;5.30;100.00;97448.41;5062358;28;20084;-45
2022/11/27 03:20:42;;;;;;;18.60;10.23;;;;;;;5.23;100.00;97447.94;5060276;28;20086;-43
2022/11/27 03:23:10;;;;;;;16.05;11.80;;;;;;;4.88;100.00;97453.34;5065982;28;20476;-41
2022/11/27 03:25:38;;;;;;;16.27;11.70;;;;;;;4.81;100.00;97449.38;5064095;28;20504;-43
2022/11/27 03:28:08;;;;;;;16.23;11.30;;;;;;;5.02;100.00;97439.50;5073560;28;20126;-41
2022/11/27 03:30:40;;;;;;;18.70;11.23;;;;;;;5.23;100.00;97430.47;5072088;28;20084;-43
2022/11/27 03:33:08;;;;;;;19.10;11.90;;;;;;;5.22;100.00;97435.75;5072329;28;20075;-45
2022/11/27 03:35:37;;;;;;;17.73;10.93;;;;;;;5.20;100.00;97435.03;5072692;28;20084;-43
2022/11/27 03:38:05;;;;;;;18.88;10.35;;;;;;;5.16;100.00;97431.75;5081013;28;20117;-42
2022/11/27 03:40:41;;;;;;;23.83;12.32;;;;;;;5.24;100.00;97428.69;5075006;28;20559;-41
2022/11/27 03:43:14;;;;;;;16.95;11.52;;;;;;;5.14;100.00;97417.06;5071112;28;20560;-43
2022/11/27 03:45:50;;;;;;;18.45;11.45;;;;;;;5.18;100.00;97422.03;5075888;28;20512;-47
2022/11/27 03:48:23;;;;;;;18.35;11.68;;;;;;;5.21;100.00;97423.63;5071174;28;20643;-47
2022/11/27 03:50:59;;;;;;;17.13;10.82;;;;;;;5.09;100.00;97425.16;5067880;28;20902;-44
2022/11/27 03:53:33;;;;;;;17.10;11.60;;;;;;;5.17;100.00;97427.34;5073722;28;20111;-46
2022/11/27 03:56:07;;;;;;;17.33;12.18;;;;;;;5.24;100.00;97413.00;5075833;28;20099;-43
2022/11/27 03:58:40;;;;;;;18.40;10.88;;;;;;;5.03;100.00;97414.22;5069109;28;20527;-43
2022/11/27 04:01:12;;;;;;;26.20;11.55;;;;;;;4.98;100.00;97410.09;5059253;28;20441;-45
2022/11/27 04:03:40;;;;;;;27.85;10.93;;;;;;;4.92;100.00;97417.41;5059606;28;20090;-41
2022/11/27 04:06:10;;;;;;;14.50;10.65;;;;;;;4.51;100.00;97413.59;5061320;28;20091;-46
2022/11/27 04:08:39;;;;;;;14.27;10.15;;;;;;;4.81;100.00;97417.19;5057359;28;20084;-42
2022/11/27 04:11:07;;;;;;;13.00;10.05;;;;;;;4.71;100.00;97424.69;5057153;28;20087;-44
2022/11/27 04:13:36;;;;;;;14.55;10.48;;;;;;;4.50;100.00;97424.09;5058002;28;20475;-47
2022/11/27 04:16:05;;;;;;;18.33;11.27;;;;;;;4.45;100.00;97428.75;5064121;28;20084;-44
2022/11/27 04:18:34;;;;;;;25.98;11.57;;;;;;;4.39;100.00;97429.91;5057954;28;20078;-45
2022/11/27 04:21:03;;;;;;;30.75;11.70;;;;;;;4.00;100.00;97425.03;5063680;28;20084;-43
2022/11/27 04:23:32;;;;;;;34.70;11.95;;;;;;;4.21;100.00;97415.22;5053380;28;20095;-46
2022/11/27 04:26:00;;;;;;;25.13;11.65;;;;;;;4.20;100.00;97419.63;5069401;28;20079;-46
2022/11/27 04:28:29;;;;;;;19.67;11.80;;;;;;;4.40;100.00;97415.06;5055693;28;20079;-41
2022/11/27 04:30:57;;;;;;;17.88;11.73;;;;;;;4.51;100.00;97410.13;5067965;28;20084;-46
2022/11/27 04:33:26;;;;;;;16.30;11.30;;;;;;;4.57;100.00;97408.94;5057571;28;20080;-42
2022/11/27 04:35:55;;;;;;;16.48;11.60;;;;;;;4.66;100.00;97424.94;5072655;28;20061;-43
2022/11/27 04:38:24;;;;;;;15.90;11.67;;;;;;;4.62;100.00;97415.59;5064071;28;20090;-45
2022/11/27 04:40:52;;;;;;;14.77;10.55;;;;;;;4.52;100.00;97414.41;5060814;28;20503;-42
2022/11/27 04:43:20;;;;;;;14.50;10.50;;;;;;;4.30;100.00;97406.88;5058750;28;20076;-47
2022/11/27 04:45:49;;;;;;;16.75;10.55;;;;;;;3.93;100.00;97408.84;5062872;28;20080;-44
2022/11/27 04:48:17;;;;;;;16.88;11.30;;;;;;;3.73;100.00;97411.66;5064258;28;20067;-42
2022/11/27 04:50:46;;;;;;;13.48;10.50;;;;;;;4.08;100.00;97409.81;5067042;28;20067;-43
2022/11/27 04:53:15;;;;;;;12.63;10.02;;;;;;;3.96;100.00;97411.31;5069575;28;20074;-44
2022/11/27 04:55:43;;;;;;;14.63;10.47;;;;;;;3.95;100.00;97414.00;5057892;28;20080;-45
2022/11/27 04:58:12;;;;;;;14.38;10.95;;;;;;;4.01;100.00;97403.22;5065977;28;20514;-44
2022/11/27 05:00:40;;;;;;;14.73;11.48;;;;;;;4.20;100.00;97403.94;5060842;28;20084;-42
2022/11/27 05:03:08;;;;;;;13.55;10.55;;;;;;;4.34;100.00;97410.22;5062134;28;20068;-46
2022/11/27 05:05:37;;;;;;;15.40;10.90;;;;;;;4.03;100.00;97417.91;5061194;28;20519;-45
2022/11/27 05:08:05;;;;;;;15.63;10.70;;;;;;;4.04;100.00;97426.56;5065389;28;20072;-47
2022/11/27 05:10:35;;;;;;;15.80;11.10;;;;;;;4.06;100.00;97414.28;5063333;28;20076;-42
2022/11/27 05:13:03;;;;;;;12.60;10.35;;;;;;;4.17;100.00;97411.94;5069279;28;20076;-44
2022/11/27 05:15:32;;;;;;;13.90;10.25;;;;;;;4.06;100.00;97411.69;5065393;28;20083;-45
2022/11/27 05:18:00;;;;;;;15.82;10.77;;;;;;;4.18;100.00;97402.34;5062232;28;20064;-46
2022/11/27 05:20:28;;;;;;;17.42;9.85;;;;;;;3.76;100.00;97416.72;5063825;28;20487;-45
2022/11/27 05:22:56;;;;;;;23.75;9.45;;;;;;;3.65;100.00;97421.63;5065583;28;20068;-45
2022/11/27 05:25:25;;;;;;;21.85;9.50;;;;;;;3.73;100.00;97420.31;5064217;28;20088;-45
2022/11/27 05:27:54;;;;;;;17.48;9.57;;;;;;;3.81;100.00;97412.09;5060744;28;20094;-42
2022/11/27 05:30:23;;;;;;;15.77;9.70;;;;;;;3.69;100.00;97416.19;5064629;28;20554;-44
2022/11/27 05:32:51;;;;;;;12.05;9.70;;;;;;;3.91;100.00;97412.47;5062331;28;20076;-42
2022/11/27 05:35:19;;;;;;;16.88;9.38;;;;;;;3.82;100.00;97421.63;5070489;28;20087;-41
2022/11/27 05:37:47;;;;;;;17.48;9.15;;;;;;;3.65;100.00;97432.94;5061514;28;20080;-45
2022/11/27 05:40:16;;;;;;;20.92;9.00;;;;;;;3.40;100.00;97437.66;5057720;28;20072;-45
2022/11/27 05:42:44;;;;;;;16.25;9.07;;;;;;;3.71;100.00;97432.59;5061083;28;20502;-44
2022/11/27 05:45:13;;;;;;;12.65;9.07;;;;;;;3.64;100.00;97423.41;5061399;28;20099;-44
2022/11/27 05:47:42;;;;;;;15.63;9.53;;;;;;;3.66;100.00;97423.34;5063280;28;20088;-46
2022/11/27 05:50:10;;;;;;;26.05;9.02;;;;;;;4.00;100.00;97410.22;5058004;28;20077;-41
2022/11/27 05:52:38;;;;;;;17.58;8.70;;;;;;;3.78;100.00;97407.88;5061859;28;20080;-43
2022/11/27 05:55:07;;;;;;;24.10;9.35;;;;;;;3.70;100.00;97402.22;5055465;28;20084;-41
2022/11/27 05:57:36;;;;;;;15.57;8.07;;;;;;;3.47;100.00;97402.53;5068608;28;20084;-47
2022/11/27 06:00:05;;;;;;;22.67;9.63;;;;;;;3.62;100.00;97399.16;5057145;28;20080;-44
2022/11/27 06:02:35;;;;;;;23.55;9.35;;;;;;;3.63;100.00;97403.47;5061128;28;20076;-41
2022/11/27 06:05:04;;;;;;;18.73;9.95;;;;;;;3.48;100.00;97399.03;5061819;28;20523;-42
2022/11/27 06:07:33;;;;;;;12.23;8.70;;;;;;;3.89;100.00;97390.81;5069709;28;20087;-45
2022/11/27 06:10:01;;;;;;;15.70;9.02;;;;;;;3.81;100.00;97388.63;5061996;28;20080;-41
2022/11/27 06:12:31;;;;;;;11.20;8.38;;;;;;;4.13;100.00;97396.50;5062599;28;20081;-46
2022/11/27 06:14:59;;;;;;;18.48;8.15;;;;;;;4.02;100.00;97392.69;5061992;28;20083;-46
2022/11/27 06:17:27;;;;;;;18.63;8.85;;;;;;;4.29;100.00;97381.72;5069594;28;20500;-45
2022/11/27 06:19:57;;;;;;;20.70;9.50;;;;;;;4.23;100.00;97389.88;5062003;28;20472;-48
2022/11/27 06:22:25;;;;;;;30.63;9.15;;;;;;;4.35;100.00;97389.22;5060079;28;20089;-44
2022/11/27 06:24:53;;;;;;;18.48;8.90;;;;;;;4.60;100.00;97383.47;5058430;28;20555;-47
2022/11/27 06:27:22;;;;;;;22.83;8.77;;;;;;;4.57;100.00;97390.66;5063054;28;20091;-45
2022/11/27 06:29:50;;;;;;;22.80;8.25;;;;;;;4.45;100.00;97392.19;5060427;28;20068;-44
2022/11/27 06:32:18;;;;;;;17.73;8.52;;;;;;;4.27;100.00;97401.84;5063550;28;20087;-43
2022/11/27 06:34:47;;;;;;;21.13;8.45;;;;;;;4.20;100.00;97395.28;5068635;28;20555;-43
2022/11/27 06:37:16;;;;;;;17.20;8.15;;;;;;;4.43;100.00;97402.69;5058992;28;20087;-45
2022/11/27 06:39:45;;;;;;;18.55;8.70;;;;;;;4.60;100.00;97395.72;5063495;28;20084;-42
2022/11/27 06:42:13;;;;;;;21.50;8.55;;;;;;;4.45;100.00;97398.25;5063172;28;20087;-44
2022/11/27 06:44:41;;;;;;;18.45;7.60;;;;;;;4.08;100.00;97399.38;5059392;28;20129;-42
2022/11/27 06:47:10;;;;;;;21.05;7.90;;;;;;;4.07;100.00;97399.47;5064676;28;20094;-46
2022/11/27 06:49:38;;;;;;;31.98;7.55;;;;;;;3.77;100.00;97407.97;5059443;28;20078;-43
2022/11/27 06:52:06;;;;;;;23.48;7.90;;;;;;;4.13;100.00;97397.38;5062048;28;20098;-47
2022/11/27 06:54:36;;;;;;;47.50;8.32;;;;;;;3.80;100.00;97402.59;5059236;28;20076;-46
2022/11/27 06:57:05;;;;;;;41.28;8.50;;;;;;;4.11;100.00;97406.19;5066997;28;20087;-42
2022/11/27 06:59:33;;;;;;;34.25;8.00;;;;;;;4.25;100.00;97398.47;5054430;28;20064;-46
2022/11/27 07:02:01;;;;;;;38.03;7.35;;;;;;;3.96;100.00;97411.31;5064433;28;20531;-43
2022/11/27 07:04:29;;;;;;;48.40;8.55;;;;;;;3.97;100.00;97402.56;5064587;28;20094;-44
2022/11/27 07:06:58;;;;;;;43.78;7.95;;;;;;;3.74;100.00;97401.13;5061204;28;20303;-46
2022/11/27 07:09:26;;;;;;;34.40;7.03;;;;;;;3.78;100.00;97399.19;5060144;28;20080;-43
2022/11/27 07:11:56;;;;;;;34.47;6.63;;;;;;;3.40;100.00;97399.41;5060851;28;20082;-42
2022/11/27 07:14:24;;;;;;;27.40;7.43;;;;;;;3.84;100.00;97398.91;5058974;28;20480;-43
2022/11/27 07:16:53;;;;;;;20.58;6.55;;;;;;;3.90;100.00;97397.75;5061289;28;20491;-43
2022/11/27 07:19:21;;;;;;;19.88;6.50;;;;;;;3.94;100.00;97402.72;5065963;28;20114;-43
2022/11/27 07:21:49;;;;;;;32.70;7.40;;;;;;;4.11;100.00;97398.38;5059316;28;20122;-42
2022/11/27 07:24:17;;;;;;;37.70;7.93;;;;;;;3.85;100.00;97404.94;5065944;28;20087;-47
2022/11/27 07:26:46;;;;;;;38.58;8.82;;;;;;;3.94;100.00;97404.47;5054427;28;20094;-44
2022/11/27 07:29:15;;;;;;;16.10;6.88;;;;;;;3.99;100.00;97402.47;5066725;28;20079;-42
2022/11/27 07:31:43;;;;;;;27.47;8.00;;;;;;;4.23;100.00;97400.31;5056794;28;20488;-48
2022/11/27 07:34:12;;;;;;;22.45;7.88;;;;;;;4.66;100.00;97401.44;5059786;28;20473;-44
2022/11/27 07:36:46;;;;;;;30.48;9.18;;;;;;;4.28;100.00;97400.91;5058433;28;20916;-47
2022/11/27 07:39:16;;;;;;;24.67;7.78;;;;;;;4.28;100.00;97391.31;5067125;28;20080;-44
2022/11/27 07:42:01;;;;;;;28.13;7.80;;;;;;;4.13;100.00;97388.66;5063942;28;20477;-43
2022/11/27 07:44:50;;;;;;;20.50;8.13;;;;;;;4.22;100.00;97386.41;5057667;28;20187;-41
2022/11/27 07:47:18;;;;;;;25.15;7.32;;;;;;;4.34;100.00;97384.94;5065415;28;20080;-45
2022/11/27 07:49:47;;;;;;;29.02;7.55;;;;;;;4.21;100.00;97384.75;5058594;28;20084;-46
2022/11/27 07:52:15;;;;;;;38.28;8.63;;;;;;;3.97;100.00;97379.06;5057975;28;20083;-42
2022/11/27 07:54:43;;;;;;;41.10;8.30;;;;;;;4.09;100.00;97377.56;5060395;28;20107;-42
2022/11/27 07:57:11;;;;;;;33.53;7.45;;;;;;;4.33;100.00;97378.00;5063705;28;20084;-45
2022/11/27 07:59:39;;;;;;;32.72;7.45;;;;;;;4.51;100.00;97363.13;5055366;28;20469;-42
2022/11/27 08:02:15;;;;;;;22.92;6.72;;;;;;;4.24;100.00;97360.25;5059856;28;20087;-46
2022/11/27 08:04:44;;;;;;;23.15;6.00;;;;;;;3.92;100.00;97364.56;5066536;28;20060;-44
2022/11/27 08:07:12;;;;;;;32.58;7.20;;;;;;;3.81;100.00;97363.38;5071380;28;20084;-41
2022/11/27 08:09:41;;;;;;;33.20;7.55;;;;;;;4.66;100.00;97356.19;5064533;28;20080;-45
2022/11/27 08:12:09;;;;;;;20.42;4.75;;;;;;;4.06;100.00;97362.09;5072281;28;20087;-43
2022/11/27 08:14:37;;;;;;;35.35;8.95;;;;;;;3.84;100.00;97361.53;5071270;28;20080;-42
2022/11/27 08:17:06;;;;;;;49.63;8.10;;;;;;;3.89;100.00;97359.50;5069726;28;20087;-42
2022/11/27 08:19:36;;;;;;;20.65;6.85;;;;;;;4.34;100.00;97351.00;5064204;28;20491;-41
2022/11/27 08:22:05;;;;;;;26.80;7.93;;;;;;;4.41;100.00;97352.34;5066231;28;20087;-42
2022/11/27 08:24:36;;;;;;;18.90;7.17;;;;;;;4.53;100.00;97341.19;5062932;28;20075;-45
2022/11/27 08:27:04;;;;;;;39.95;8.45;;;;;;;4.33;100.00;97338.84;5067821;28;20089;-44
2022/11/27 08:29:32;;;;;;;39.45;8.35;;;;;;;4.65;100.00;97339.69;5064474;28;20095;-44
2022/11/27 08:32:01;;;;;;;31.73;7.22;;;;;;;4.45;100.00;97342.56;5064114;28;20072;-43
2022/11/27 08:34:29;;;;;;;37.10;7.82;;;;;;;4.33;100.00;97340.59;5069434;28;20068;-42
2022/11/27 08:36:59;;;;;;;42.60;8.02;;;;;;;4.24;100.00;97337.59;5066651;28;20068;-41
2022/11/27 08:39:27;;;;;;;37.83;8.40;;;;;;;4.81;100.00;97355.31;5065791;28;20154;-44
2022/11/27 08:41:55;;;;;;;55.13;9.80;;;;;;;4.82;100.00;97346.56;5067307;28;20072;-41
2022/11/27 08:44:24;;;;;;;53.00;9.95;;;;;;;4.83;100.00;97352.63;5068656;28;20527;-42
2022/11/27 08:46:52;;;;;;;36.30;8.73;;;;;;;4.79;100.00;97349.34;5069406;28;20091;-43
2022/11/27 08:49:20;;;;;;;81.35;10.90;;;;;;;5.52;100.00;97340.75;5070006;28;20087;-43
2022/11/27 08:51:48;;;;;;;50.47;10.48;;;;;;;4.98;100.00;97349.13;5071289;28;20059;-42
2022/11/27 08:54:18;;;;;;;46.50;9.43;;;;;;;4.68;100.00;97346.47;5071375;28;20474;-43
2022/11/27 08:56:46;;;;;;;77.43;16.65;;;;;;;5.12;100.00;97340.47;5065626;28;20080;-41
2022/11/27 08:59:14;;;;;;;57.83;9.80;;;;;;;4.76;100.00;97344.28;5067718;28;20076;-42
2022/11/27 09:01:43;;;;;;;59.88;10.40;;;;;;;4.84;100.00;97336.00;5065745;28;20083;-44
2022/11/27 09:04:11;;;;;;;52.10;8.15;;;;;;;5.48;100.00;97338.31;5061874;28;20528;-44
2022/11/27 09:06:41;;;;;;;28.67;7.90;;;;;;;5.57;100.00;97341.31;5062909;28;20111;-45
2022/11/27 09:09:09;;;;;;;31.77;8.13;;;;;;;5.77;100.00;97334.88;5066885;28;20072;-45
2022/11/27 09:11:39;;;;;;;39.20;8.30;;;;;;;5.32;100.00;97334.94;5061729;28;20084;-44
2022/11/27 09:14:08;;;;;;;31.65;8.30;;;;;;;5.77;100.00;97332.25;5062507;28;20080;-48
2022/11/27 09:16:36;;;;;;;43.85;8.05;;;;;;;5.74;100.00;97322.81;5059384;28;20485;-46
2022/11/27 09:19:05;;;;;;;55.30;8.18;;;;;;;5.19;100.00;97326.94;5071688;28;20488;-43
2022/11/27 09:21:33;;;;;;;33.67;8.70;;;;;;;5.67;100.00;97330.19;5063860;28;20084;-47
2022/11/27 09:24:02;;;;;;;26.52;8.88;;;;;;;6.49;100.00;97322.56;5062187;28;20107;-44
2022/11/27 09:26:30;;;;;;;46.58;9.07;;;;;;;6.65;100.00;97321.50;5056520;28;20087;-48
2022/11/27 09:29:00;;;;;;;55.38;8.00;;;;;;;6.36;100.00;97325.94;5061713;28;20092;-46
2022/11/27 09:31:28;;;;;;;40.10;9.10;;;;;;;6.42;100.00;97320.34;5058367;28;20080;-44
2022/11/27 09:33:57;;;;;;;21.88;8.80;;;;;;;6.93;100.00;97314.44;5057631;28;20495;-42
2022/11/27 09:36:26;;;;;;;46.05;8.30;;;;;;;6.79;100.00;97304.88;5067377;28;20075;-44
2022/11/27 09:38:54;;;;;;;28.65;8.63;;;;;;;6.70;100.00;97312.47;5080461;28;20474;-45
2022/11/27 09:41:40;;;;;;;18.15;8.52;;;;;;;7.07;100.00;97311.75;5074824;28;20567;-46
2022/11/27 09:44:25;;;;;;;21.30;7.55;;;;;;;6.55;100.00;97299.44;5074368;28;20088;-44
2022/11/27 09:46:55;;;;;;;36.65;7.53;;;;;;;6.62;100.00;97297.25;5071618;28;20561;-44
2022/11/27 09:49:26;;;;;;;29.95;7.60;;;;;;;6.27;100.00;97289.88;5073790;28;20088;-47
2022/11/27 09:51:55;;;;;;;;;;;;;;;6.51;100.00;97284.03;5075919;28;20091;-42
2022/11/27 09:54:26;;;;;;;24.63;7.43;;;;;;;6.61;100.00;97275.47;5075518;28;19964;-45
2022/11/27 09:56:56;;;;;;;28.45;6.60;;;;;;;6.10;100.00;97270.00;5075640;28;20068;-45
2022/11/27 09:59:32;;;;;;;27.08;7.05;;;;;;;6.44;100.00;97275.72;5071317;28;20113;-47
2022/11/27 10:02:01;;;;;;;16.65;7.10;;;;;;;6.29;100.00;97274.91;5077024;28;20087;-42
2022/11/27 10:04:29;;;;;;;37.72;8.27;;;;;;;6.57;100.00;97270.50;5068979;28;20082;-46
2022/11/27 10:07:27;;;;;;;30.38;7.15;;;;;;;6.27;100.00;97271.56;5075028;28;20088;-47
2022/11/27 10:10:05;;;;;;;32.25;7.72;;;;;;;6.82;100.00;97260.09;5068775;28;20110;-41
2022/11/27 10:12:40;;;;;;;40.33;7.68;;;;;;;5.94;100.00;97262.25;5079360;28;20076;-41
2022/11/27 10:15:15;;;;;;;28.30;9.10;;;;;;;6.29;100.00;97259.19;5071150;28;20080;-44
2022/11/27 10:17:47;;;;;;;45.50;8.57;;;;;;;6.62;100.00;97248.31;5067726;28;20091;-45
2022/11/27 10:20:22;;;;;;;19.52;8.65;;;;;;;6.68;100.00;97247.06;5075374;28;20456;-41
2022/11/27 10:22:56;;;;;;;40.10;9.65;;;;;;;6.32;100.00;97255.53;5072754;28;20546;-43
2022/11/27 10:25:29;;;;;;;21.33;7.90;;;;;;;6.28;100.00;97247.03;5074545;28;20095;-44
2022/11/27 10:28:04;;;;;;;25.85;8.20;;;;;;;6.53;100.00;97238.41;5079199;28;20558;-44
2022/11/27 10:30:38;;;;;;;24.65;9.02;;;;;;;6.36;100.00;97236.06;5073534;28;20091;-45
2022/11/27 10:33:13;;;;;;;27.65;8.10;;;;;;;6.72;100.00;97239.84;5073162;28;20080;-42
2022/11/27 10:35:43;;;;;;;21.33;9.60;;;;;;;6.92;100.00;97234.13;5083199;28;20081;-46
2022/11/27 10:38:14;;;;;;;26.20;8.07;;;;;;;6.89;100.00;97229.06;5073773;28;20070;-45
2022/11/27 10:40:46;;;;;;;34.53;9.60;;;;;;;6.46;100.00;97233.69;5064390;28;20063;-41
2022/11/27 10:43:18;;;;;;;21.48;9.77;;;;;;;7.23;100.00;97226.78;5070167;28;20099;-43
2022/11/27 10:45:50;;;;;;;24.77;9.30;;;;;;;7.14;100.00;97215.13;5078044;28;20645;-42
2022/11/27 10:48:19;;;;;;;31.92;6.88;;;;;;;6.82;100.00;97218.16;5073466;28;20101;-45
2022/11/27 10:50:47;;;;;;;24.67;8.35;;;;;;;7.26;100.00;97211.69;5069325;28;20080;-43
2022/11/27 10:53:25;;;;;;;30.40;8.88;;;;;;;6.90;100.00;97194.03;5088761;28;20083;-45
2022/11/27 10:56:01;;;;;;;43.20;10.80;;;;;;;6.95;100.00;97186.72;5067482;28;20087;-47
2022/11/27 10:58:34;;;;;;;27.33;9.57;;;;;;;6.94;100.00;97187.63;5068262;28;20086;-45
2022/11/27 11:01:06;;;;;;;22.20;11.18;;;;;;;6.55;100.00;97201.63;5074023;28;20083;-43
2022/11/27 11:03:35;;;;;;;33.10;10.82;;;;;;;6.99;100.00;97187.34;5076012;28;20467;-43
2022/11/27 11:06:05;;;;;;;40.00;10.90;;;;;;;6.75;100.00;97200.31;5075022;28;20079;-45
2022/11/27 11:09:01;;;;;;;27.13;9.77;;;;;;;6.88;100.00;97196.78;5077975;28;20071;-43
2022/11/27 11:11:29;;;;;;;22.15;10.35;;;;;;;7.19;100.00;97207.81;5075146;28;20083;-47
2022/11/27 11:13:57;;;;;;;26.30;10.00;;;;;;;7.49;100.00;97199.56;5076819;28;20079;-42
2022/11/27 11:16:30;;;;;;;23.77;9.65;;;;;;;7.54;100.00;97200.09;5084295;28;20068;-45
2022/11/27 11:19:05;;;;;;;25.70;10.20;;;;;;;7.59;100.00;97207.66;5080921;28;20110;-45
2022/11/27 11:21:35;;;;;;;32.97;12.07;;;;;;;8.01;100.00;97216.03;5080330;28;20064;-42
2022/11/27 11:24:06;;;;;;;22.80;10.48;;;;;;;8.07;100.00;97208.56;5070522;28;20084;-42
2022/11/27 11:26:37;;;;;;;36.17;9.23;;;;;;;7.75;100.00;97210.03;5070878;28;20072;-44
2022/11/27 11:29:07;;;;;;;48.58;10.05;;;;;;;7.71;100.00;97208.56;5060871;28;20080;-43
2022/11/27 11:31:38;;;;;;;39.97;10.45;;;;;;;7.65;100.00;97188.84;5069493;28;20087;-46
2022/11/27 11:34:17;;;;;;;52.53;9.57;;;;;;;7.53;100.00;97187.06;5070180;28;20095;-43
2022/11/27 11:36:57;;;;;;;45.97;11.05;;;;;;;7.76;100.00;97170.53;5078039;28;20083;-41